sensor_id;sensor_type;location;lat;lon;timestamp;pressure;altitude;pressure_sealevel;temperature;humidity
12666;BME280;58531;59.050;17.416;2023-02-22T00:01:09;101247.22;;;-3.45;98.75
12666;BME280;58531;59.050;17.416;2023-02-22T00:03:47;101246.78;;;-3.47;99.81
12666;BME280;58531;59.050;17.416;2023-02-22T00:06:18;101245.56;;;-3.50;100.00
12666;BME280;58531;59.050;17.416;2023-02-22T00:08:47;101245.91;;;-3.51;100.00
12666;BME280;58531;59.050;17.416;2023-02-22T00:11:15;101249.25;;;-3.51;99.95
12666;BME280;58531;59.050;17.416;2023-02-22T00:13:42;101257.97;;;-3.47;99.57
12666;BME280;58531;59.050;17.416;2023-02-22T00:16:13;101257.53;;;-3.49;100.00
12666;BME280;58531;59.050;17.416;2023-02-22T00:18:40;101253.84;;;-3.48;100.00
12666;BME280;58531;59.050;17.416;2023-02-22T00:21:09;101266.16;;;-3.48;100.00
12666;BME280;58531;59.050;17.416;2023-02-22T00:23:39;101263.63;;;-3.45;99.48
12666;BME280;58531;59.050;17.416;2023-02-22T00:26:08;101260.59;;;-3.47;98.96
12666;BME280;58531;59.050;17.416;2023-02-22T00:28:35;101260.91;;;-3.48;99.78
12666;BME280;58531;59.050;17.416;2023-02-22T00:31:02;101264.63;;;-3.49;100.00
12666;BME280;58531;59.050;17.416;2023-02-22T00:33:31;101264.28;;;-3.48;99.93
12666;BME280;58531;59.050;17.416;2023-02-22T00:35:58;101261.44;;;-3.54;99.91
12666;BME280;58531;59.050;17.416;2023-02-22T00:38:25;101252.22;;;-3.52;99.84
12666;BME280;58531;59.050;17.416;2023-02-22T00:40:53;101256.66;;;-3.53;99.85
12666;BME280;58531;59.050;17.416;2023-02-22T00:43:20;101263.31;;;-3.55;99.68
12666;BME280;58531;59.050;17.416;2023-02-22T00:45:47;101264.81;;;-3.54;99.54
12666;BME280;58531;59.050;17.416;2023-02-22T00:48:14;101264.81;;;-3.54;99.05
12666;BME280;58531;59.050;17.416;2023-02-22T00:50:41;101264.81;;;-3.54;98.65
12666;BME280;58531;59.050;17.416;2023-02-22T00:53:09;101263.94;;;-3.58;99.38
12666;BME280;58531;59.050;17.416;2023-02-22T00:55:37;101269.94;;;-3.57;99.15
12666;BME280;58531;59.050;17.416;2023-02-22T00:58:06;101274.28;;;-3.61;98.53
12666;BME280;58531;59.050;17.416;2023-02-22T01:00:35;101277.34;;;-3.59;99.46
12666;BME280;58531;59.050;17.416;2023-02-22T01:03:03;101281.78;;;-3.60;99.22
12666;BME280;58531;59.050;17.416;2023-02-22T01:05:30;101278.09;;;-3.59;99.03
12666;BME280;58531;59.050;17.416;2023-02-22T01:07:58;101283.31;;;-3.59;97.81
12666;BME280;58531;59.050;17.416;2023-02-22T01:10:30;101288.97;;;-3.57;98.55
12666;BME280;58531;59.050;17.416;2023-02-22T01:12:57;101292.66;;;-3.58;98.08
12666;BME280;58531;59.050;17.416;2023-02-22T01:15:27;101292.31;;;-3.56;98.52
12666;BME280;58531;59.050;17.416;2023-02-22T01:17:55;101294.19;;;-3.57;96.21
12666;BME280;58531;59.050;17.416;2023-02-22T01:20:24;101305.59;;;-3.61;97.98
12666;BME280;58531;59.050;17.416;2023-02-22T01:22:53;101306.56;;;-3.66;96.80
12666;BME280;58531;59.050;17.416;2023-02-22T01:25:22;101300.25;;;-3.65;97.68
12666;BME280;58531;59.050;17.416;2023-02-22T01:27:49;101303.31;;;-3.63;97.37
12666;BME280;58531;59.050;17.416;2023-02-22T01:30:20;101302.84;;;-3.65;97.01
12666;BME280;58531;59.050;17.416;2023-02-22T01:32:48;101304.72;;;-3.65;97.30
12666;BME280;58531;59.050;17.416;2023-02-22T01:35:20;101302.41;;;-3.67;96.69
12666;BME280;58531;59.050;17.416;2023-02-22T01:37:47;101311.66;;;-3.69;97.48
12666;BME280;58531;59.050;17.416;2023-02-22T01:40:17;101308.91;;;-3.73;97.16
12666;BME280;58531;59.050;17.416;2023-02-22T01:42:46;101314.13;;;-3.73;96.50
12666;BME280;58531;59.050;17.416;2023-02-22T01:48:38;101318.28;;;-3.72;96.53
12666;BME280;58531;59.050;17.416;2023-02-22T01:51:10;101326.31;;;-3.77;96.21
12666;BME280;58531;59.050;17.416;2023-02-22T01:53:42;101320.78;;;-3.75;95.55
12666;BME280;58531;59.050;17.416;2023-02-22T01:56:11;101328.28;;;-3.74;96.64
12666;BME280;58531;59.050;17.416;2023-02-22T01:58:41;101324.56;;;-3.73;95.73
12666;BME280;58531;59.050;17.416;2023-02-22T02:01:10;101328.28;;;-3.74;96.88
12666;BME280;58531;59.050;17.416;2023-02-22T02:03:39;101328.28;;;-3.74;96.04
12666;BME280;58531;59.050;17.416;2023-02-22T02:06:10;101331.97;;;-3.75;95.88
12666;BME280;58531;59.050;17.416;2023-02-22T02:08:44;101331.22;;;-3.75;95.87
12666;BME280;58531;59.050;17.416;2023-02-22T02:11:17;101328.59;;;-3.75;94.47
12666;BME280;58531;59.050;17.416;2023-02-22T02:13:44;101334.13;;;-3.77;94.74
12666;BME280;58531;59.050;17.416;2023-02-22T02:16:11;101333.38;;;-3.77;94.80
12666;BME280;58531;59.050;17.416;2023-02-22T02:18:40;101338.91;;;-3.79;93.85
12666;BME280;58531;59.050;17.416;2023-02-22T02:21:31;101335.09;;;-3.81;94.98
12666;BME280;58531;59.050;17.416;2023-02-22T02:27:10;101333.03;;;-3.76;94.44
12666;BME280;58531;59.050;17.416;2023-02-22T02:30:23;101338.91;;;-3.79;93.78
12666;BME280;58531;59.050;17.416;2023-02-22T02:32:57;101333.25;;;-3.81;94.06
12666;BME280;58531;59.050;17.416;2023-02-22T02:35:34;101332.50;;;-3.81;94.51
12666;BME280;58531;59.050;17.416;2023-02-22T02:38:11;101338.03;;;-3.83;94.06
12666;BME280;58531;59.050;17.416;2023-02-22T02:40:46;101331.72;;;-3.82;93.62
12666;BME280;58531;59.050;17.416;2023-02-22T02:43:20;101339.88;;;-3.83;93.40
12666;BME280;58531;59.050;17.416;2023-02-22T02:45:53;101342.50;;;-3.83;95.16
12666;BME280;58531;59.050;17.416;2023-02-22T02:48:26;101340.00;;;-3.80;94.14
12666;BME280;58531;59.050;17.416;2023-02-22T02:50:56;101335.44;;;-3.83;93.64
12666;BME280;58531;59.050;17.416;2023-02-22T02:53:30;101333.47;;;-3.86;94.15
12666;BME280;58531;59.050;17.416;2023-02-22T02:55:58;101343.47;;;-3.88;94.17
12666;BME280;58531;59.050;17.416;2023-02-22T02:58:25;101343.47;;;-3.88;94.48
12666;BME280;58531;59.050;17.416;2023-02-22T03:00:55;101353.91;;;-3.88;95.05
12666;BME280;58531;59.050;17.416;2023-02-22T03:03:50;101344.09;;;-3.91;94.32
12666;BME280;58531;59.050;17.416;2023-02-22T03:06:49;101346.25;;;-3.93;94.43
12666;BME280;58531;59.050;17.416;2023-02-22T03:09:29;101344.41;;;-3.92;94.04
12666;BME280;58531;59.050;17.416;2023-02-22T03:12:15;101344.41;;;-3.92;94.25
12666;BME280;58531;59.050;17.416;2023-02-22T03:14:52;101357.34;;;-3.96;95.02
12666;BME280;58531;59.050;17.416;2023-02-22T03:17:29;101353.41;;;-4.02;94.66
12666;BME280;58531;59.050;17.416;2023-02-22T03:20:09;101362.75;;;-4.01;94.67
12666;BME280;58531;59.050;17.416;2023-02-22T03:22:41;101363.38;;;-4.04;96.03
12666;BME280;58531;59.050;17.416;2023-02-22T03:25:15;101365.66;;;-4.02;94.69
12666;BME280;58531;59.050;17.416;2023-02-22T03:27:46;101371.50;;;-4.05;94.88
12666;BME280;58531;59.050;17.416;2023-02-22T03:30:17;101375.63;;;-4.04;95.26
12666;BME280;58531;59.050;17.416;2023-02-22T03:32:47;101374.00;;;-4.09;95.20
12666;BME280;58531;59.050;17.416;2023-02-22T03:35:19;101380.75;;;-4.08;96.18
12666;BME280;58531;59.050;17.416;2023-02-22T03:37:50;101379.22;;;-4.09;95.54
12666;BME280;58531;59.050;17.416;2023-02-22T03:40:22;101373.56;;;-4.11;94.88
12666;BME280;58531;59.050;17.416;2023-02-22T03:42:56;101379.84;;;-4.12;95.29
12666;BME280;58531;59.050;17.416;2023-02-22T03:45:26;101376.16;;;-4.11;96.00
12666;BME280;58531;59.050;17.416;2023-02-22T03:48:00;101378.22;;;-4.16;95.23
12666;BME280;58531;59.050;17.416;2023-02-22T03:50:33;101382.66;;;-4.17;95.82
12666;BME280;58531;59.050;17.416;2023-02-22T03:53:01;101388.50;;;-4.20;95.55
12666;BME280;58531;59.050;17.416;2023-02-22T03:55:29;101384.81;;;-4.19;95.15
12666;BME280;58531;59.050;17.416;2023-02-22T03:57:58;101383.16;;;-4.23;96.37
12666;BME280;58531;59.050;17.416;2023-02-22T04:00:29;101393.25;;;-4.22;97.00
12666;BME280;58531;59.050;17.416;2023-02-22T04:02:57;101393.25;;;-4.22;97.47
12666;BME280;58531;59.050;17.416;2023-02-22T04:05:24;101386.97;;;-4.21;98.17
12666;BME280;58531;59.050;17.416;2023-02-22T04:07:54;101394.47;;;-4.19;97.44
12666;BME280;58531;59.050;17.416;2023-02-22T04:10:22;101396.47;;;-4.16;95.64
12666;BME280;58531;59.050;17.416;2023-02-22T04:12:49;101402.13;;;-4.14;95.99
12666;BME280;58531;59.050;17.416;2023-02-22T04:15:18;101403.66;;;-4.13;95.77
12666;BME280;58531;59.050;17.416;2023-02-22T04:17:46;101402.44;;;-4.16;96.52
12666;BME280;58531;59.050;17.416;2023-02-22T04:20:12;101398.28;;;-4.17;97.17
12666;BME280;58531;59.050;17.416;2023-02-22T04:22:40;101407.81;;;-4.21;96.96
12666;BME280;58531;59.050;17.416;2023-02-22T04:25:08;101406.75;;;-4.20;96.48
12666;BME280;58531;59.050;17.416;2023-02-22T04:27:35;101407.97;;;-4.17;96.75
12666;BME280;58531;59.050;17.416;2023-02-22T04:30:02;101410.25;;;-4.16;97.69
12666;BME280;58531;59.050;17.416;2023-02-22T04:32:29;101405.94;;;-4.12;97.08
12666;BME280;58531;59.050;17.416;2023-02-22T04:34:56;101409.63;;;-4.13;96.11
12666;BME280;58531;59.050;17.416;2023-02-22T04:37:22;101411.03;;;-4.15;96.33
12666;BME280;58531;59.050;17.416;2023-02-22T04:39:49;101412.22;;;-4.13;96.56
12666;BME280;58531;59.050;17.416;2023-02-22T04:42:18;101419.28;;;-4.13;97.42
12666;BME280;58531;59.050;17.416;2023-02-22T04:44:44;101410.25;;;-4.16;96.91
12666;BME280;58531;59.050;17.416;2023-02-22T04:47:11;101420.38;;;-4.14;97.56
12666;BME280;58531;59.050;17.416;2023-02-22T04:49:39;101417.44;;;-4.13;96.78
12666;BME280;58531;59.050;17.416;2023-02-22T04:52:06;101420.50;;;-4.11;96.09
12666;BME280;58531;59.050;17.416;2023-02-22T04:54:32;101420.19;;;-4.09;96.72
12666;BME280;58531;59.050;17.416;2023-02-22T04:56:59;101413.31;;;-4.14;98.11
12666;BME280;58531;59.050;17.416;2023-02-22T04:59:27;101415.78;;;-4.17;98.44
12666;BME280;58531;59.050;17.416;2023-02-22T05:01:54;101414.84;;;-4.13;98.22
12666;BME280;58531;59.050;17.416;2023-02-22T05:04:21;101421.91;;;-4.13;98.12
12666;BME280;58531;59.050;17.416;2023-02-22T05:06:48;101417.00;;;-4.15;98.65
12666;BME280;58531;59.050;17.416;2023-02-22T05:09:15;101420.03;;;-4.13;97.17
12666;BME280;58531;59.050;17.416;2023-02-22T05:11:42;101429.72;;;-4.13;98.49
12666;BME280;58531;59.050;17.416;2023-02-22T05:14:09;101426.53;;;-4.19;97.81
12666;BME280;58531;59.050;17.416;2023-02-22T05:16:37;101428.94;;;-4.14;98.27
12666;BME280;58531;59.050;17.416;2023-02-22T05:19:04;101427.56;;;-4.11;98.31
12666;BME280;58531;59.050;17.416;2023-02-22T05:21:31;101431.69;;;-4.10;98.18
12666;BME280;58531;59.050;17.416;2023-02-22T05:23:57;101428.31;;;-4.11;97.90
12666;BME280;58531;59.050;17.416;2023-02-22T05:26:24;101430.28;;;-4.08;97.85
12666;BME280;58531;59.050;17.416;2023-02-22T05:28:51;101441.19;;;-4.06;97.86
12666;BME280;58531;59.050;17.416;2023-02-22T05:31:18;101438.88;;;-4.07;98.46
12666;BME280;58531;59.050;17.416;2023-02-22T05:33:46;101444.09;;;-4.07;98.10
12666;BME280;58531;59.050;17.416;2023-02-22T05:36:13;101436.91;;;-4.10;98.72
12666;BME280;58531;59.050;17.416;2023-02-22T05:38:41;101438.13;;;-4.08;96.76
12666;BME280;58531;59.050;17.416;2023-02-22T05:41:10;101436.13;;;-4.11;97.27
12666;BME280;58531;59.050;17.416;2023-02-22T05:43:37;101447.19;;;-4.14;98.21
12666;BME280;58531;59.050;17.416;2023-02-22T05:46:05;101452.88;;;-4.12;97.58
12666;BME280;58531;59.050;17.416;2023-02-22T05:48:32;101450.72;;;-4.10;97.89
12666;BME280;58531;59.050;17.416;2023-02-22T05:51:01;101450.25;;;-4.12;98.26
12666;BME280;58531;59.050;17.416;2023-02-22T05:53:28;101449.19;;;-4.11;98.35
12666;BME280;58531;59.050;17.416;2023-02-22T05:55:55;101454.09;;;-4.09;98.24
12666;BME280;58531;59.050;17.416;2023-02-22T05:58:22;101457.34;;;-4.12;98.36
12666;BME280;58531;59.050;17.416;2023-02-22T06:00:49;101464.81;;;-4.11;98.14
12666;BME280;58531;59.050;17.416;2023-02-22T06:03:16;101451.50;;;-4.09;98.72
12666;BME280;58531;59.050;17.416;2023-02-22T06:05:43;101454.09;;;-4.09;97.50
12666;BME280;58531;59.050;17.416;2023-02-22T06:08:11;101456.81;;;-4.06;97.81
12666;BME280;58531;59.050;17.416;2023-02-22T06:10:38;101461.41;;;-4.03;97.48
12666;BME280;58531;59.050;17.416;2023-02-22T06:13:05;101468.16;;;-4.02;97.70
12666;BME280;58531;59.050;17.416;2023-02-22T06:15:32;101470.94;;;-4.07;97.97
12666;BME280;58531;59.050;17.416;2023-02-22T06:18:00;101473.38;;;-4.02;98.14
12666;BME280;58531;59.050;17.416;2023-02-22T06:20:28;101471.84;;;-4.03;98.10
12666;BME280;58531;59.050;17.416;2023-02-22T06:22:56;101471.84;;;-4.03;97.65
12666;BME280;58531;59.050;17.416;2023-02-22T06:25:26;101470.94;;;-4.07;98.04
12666;BME280;58531;59.050;17.416;2023-02-22T06:27:55;101468.16;;;-4.02;97.79
12666;BME280;58531;59.050;17.416;2023-02-22T06:30:27;101471.97;;;-3.99;98.07
12666;BME280;58531;59.050;17.416;2023-02-22T06:32:59;101471.22;;;-4.00;97.36
12666;BME280;58531;59.050;17.416;2023-02-22T06:35:26;101471.31;;;-3.96;97.99
12666;BME280;58531;59.050;17.416;2023-02-22T06:37:53;101471.03;;;-3.95;97.55
12666;BME280;58531;59.050;17.416;2023-02-22T06:40:20;101482.81;;;-3.89;97.31
12666;BME280;58531;59.050;17.416;2023-02-22T06:42:48;101476.38;;;-3.91;97.30
12666;BME280;58531;59.050;17.416;2023-02-22T06:45:15;101480.00;;;-3.84;97.51
12666;BME280;58531;59.050;17.416;2023-02-22T06:47:42;101476.09;;;-3.78;97.16
12666;BME280;58531;59.050;17.416;2023-02-22T06:50:19;101477.44;;;-3.72;96.40
12666;BME280;58531;59.050;17.416;2023-02-22T06:52:46;101480.94;;;-3.68;96.70
12666;BME280;58531;59.050;17.416;2023-02-22T06:55:16;101479.75;;;-3.70;95.48
12666;BME280;58531;59.050;17.416;2023-02-22T06:57:44;101484.59;;;-3.60;95.68
12666;BME280;58531;59.050;17.416;2023-02-22T07:00:14;101493.75;;;-3.54;95.44
12666;BME280;58531;59.050;17.416;2023-02-22T07:02:41;101491.72;;;-3.49;95.60
12666;BME280;58531;59.050;17.416;2023-02-22T07:05:09;101491.97;;;-3.42;95.23
12666;BME280;58531;59.050;17.416;2023-02-22T07:07:37;101493.16;;;-3.40;95.04
12666;BME280;58531;59.050;17.416;2023-02-22T07:10:05;101494.59;;;-3.42;93.94
12666;BME280;58531;59.050;17.416;2023-02-22T07:12:32;101492.09;;;-3.39;93.54
12666;BME280;58531;59.050;17.416;2023-02-22T07:14:59;101493.53;;;-3.29;93.90
12666;BME280;58531;59.050;17.416;2023-02-22T07:17:28;101497.91;;;-3.21;93.99
12666;BME280;58531;59.050;17.416;2023-02-22T07:19:54;101516.00;;;-3.16;94.01
12666;BME280;58531;59.050;17.416;2023-02-22T07:22:21;101512.38;;;-3.03;93.30
12666;BME280;58531;59.050;17.416;2023-02-22T07:24:48;101516.09;;;-2.92;92.68
12666;BME280;58531;59.050;17.416;2023-02-22T07:27:15;101526.78;;;-2.85;92.42
12666;BME280;58531;59.050;17.416;2023-02-22T07:29:42;101522.66;;;-2.86;93.02
12666;BME280;58531;59.050;17.416;2023-02-22T07:32:11;101530.84;;;-2.76;91.50
12666;BME280;58531;59.050;17.416;2023-02-22T07:34:40;101532.28;;;-2.66;90.66
12666;BME280;58531;59.050;17.416;2023-02-22T07:37:07;101533.84;;;-2.53;89.96
12666;BME280;58531;59.050;17.416;2023-02-22T07:39:34;101538.19;;;-2.57;90.09
12666;BME280;58531;59.050;17.416;2023-02-22T07:42:02;101543.44;;;-2.45;90.45
12666;BME280;58531;59.050;17.416;2023-02-22T07:44:29;101550.84;;;-2.24;89.87
12666;BME280;58531;59.050;17.416;2023-02-22T07:46:56;101547.59;;;-2.09;88.60
12666;BME280;58531;59.050;17.416;2023-02-22T07:49:23;101552.63;;;-2.04;88.01
12666;BME280;58531;59.050;17.416;2023-02-22T07:51:51;101555.00;;;-2.11;88.14
12666;BME280;58531;59.050;17.416;2023-02-22T07:54:18;101558.28;;;-2.02;88.67
12666;BME280;58531;59.050;17.416;2023-02-22T07:56:46;101561.34;;;-1.88;87.38
12666;BME280;58531;59.050;17.416;2023-02-22T07:59:13;101565.72;;;-1.80;85.69
12666;BME280;58531;59.050;17.416;2023-02-22T08:01:40;101560.88;;;-1.78;86.41
12666;BME280;58531;59.050;17.416;2023-02-22T08:04:07;101569.91;;;-1.51;86.24
12666;BME280;58531;59.050;17.416;2023-02-22T08:06:34;101571.03;;;-1.25;85.72
12666;BME280;58531;59.050;17.416;2023-02-22T08:09:02;101565.31;;;-1.03;84.07
12666;BME280;58531;59.050;17.416;2023-02-22T08:11:29;101569.09;;;-1.28;82.52
12666;BME280;58531;59.050;17.416;2023-02-22T08:13:56;101565.22;;;-1.07;83.35
12666;BME280;58531;59.050;17.416;2023-02-22T08:16:23;101557.38;;;-0.91;82.34
12666;BME280;58531;59.050;17.416;2023-02-22T08:18:50;101552.44;;;-0.65;81.27
12666;BME280;58531;59.050;17.416;2023-02-22T08:21:17;101558.59;;;-0.73;79.95
12666;BME280;58531;59.050;17.416;2023-02-22T08:23:43;101561.16;;;-0.61;79.80
12666;BME280;58531;59.050;17.416;2023-02-22T08:26:12;101567.38;;;-0.54;79.61
12666;BME280;58531;59.050;17.416;2023-02-22T08:28:42;101566.50;;;-0.58;79.43
12666;BME280;58531;59.050;17.416;2023-02-22T08:31:09;101566.28;;;-0.37;79.96
12666;BME280;58531;59.050;17.416;2023-02-22T08:33:36;101567.19;;;-0.30;78.46
12666;BME280;58531;59.050;17.416;2023-02-22T08:36:04;101562.38;;;-0.43;78.90
12666;BME280;58531;59.050;17.416;2023-02-22T08:38:31;101567.38;;;-0.38;78.86
12666;BME280;58531;59.050;17.416;2023-02-22T08:40:58;101570.84;;;-0.34;79.06
12666;BME280;58531;59.050;17.416;2023-02-22T08:43:27;101566.41;;;-0.61;77.83
12666;BME280;58531;59.050;17.416;2023-02-22T08:45:54;101564.31;;;-0.56;78.68
12666;BME280;58531;59.050;17.416;2023-02-22T08:48:20;101578.19;;;-0.55;77.95
12666;BME280;58531;59.050;17.416;2023-02-22T08:50:47;101572.69;;;-0.50;78.23
12666;BME280;58531;59.050;17.416;2023-02-22T08:53:15;101575.50;;;-0.43;77.17
12666;BME280;58531;59.050;17.416;2023-02-22T08:55:42;101578.63;;;-0.22;77.04
12666;BME280;58531;59.050;17.416;2023-02-22T08:58:10;101577.44;;;-0.09;76.21
12666;BME280;58531;59.050;17.416;2023-02-22T09:00:39;101582.69;;;-0.09;75.49
12666;BME280;58531;59.050;17.416;2023-02-22T09:03:07;101575.06;;;-0.14;73.36
12666;BME280;58531;59.050;17.416;2023-02-22T09:05:34;101581.44;;;0.00;73.01
12666;BME280;58531;59.050;17.416;2023-02-22T09:08:01;101577.44;;;-0.09;71.63
12666;BME280;58531;59.050;17.416;2023-02-22T09:10:31;101583.25;;;0.30;72.67
12666;BME280;58531;59.050;17.416;2023-02-22T09:12:58;101580.41;;;0.54;71.95
12666;BME280;58531;59.050;17.416;2023-02-22T09:15:27;101577.66;;;0.66;68.27
12666;BME280;58531;59.050;17.416;2023-02-22T09:17:55;101575.88;;;0.70;68.22
12666;BME280;58531;59.050;17.416;2023-02-22T09:20:23;101573.63;;;0.53;65.08
12666;BME280;58531;59.050;17.416;2023-02-22T09:22:51;101580.97;;;0.82;67.21
12666;BME280;58531;59.050;17.416;2023-02-22T09:25:18;101580.63;;;0.30;62.17
12666;BME280;58531;59.050;17.416;2023-02-22T09:27:47;101566.59;;;0.07;62.10
12666;BME280;58531;59.050;17.416;2023-02-22T09:30:16;101579.97;;;0.02;63.40
12666;BME280;58531;59.050;17.416;2023-02-22T09:32:43;101581.44;;;0.00;62.35
12666;BME280;58531;59.050;17.416;2023-02-22T09:35:12;101579.63;;;0.19;60.98
12666;BME280;58531;59.050;17.416;2023-02-22T09:37:38;101582.38;;;-0.08;60.46
12666;BME280;58531;59.050;17.416;2023-02-22T09:40:13;101582.03;;;-0.22;59.29
12666;BME280;58531;59.050;17.416;2023-02-22T09:42:47;101586.19;;;-0.21;60.19
12666;BME280;58531;59.050;17.416;2023-02-22T09:45:22;101583.28;;;-0.01;60.57
12666;BME280;58531;59.050;17.416;2023-02-22T09:47:51;101589.56;;;0.10;59.30
12666;BME280;58531;59.050;17.416;2023-02-22T09:50:24;101582.53;;;0.14;59.92
12666;BME280;58531;59.050;17.416;2023-02-22T09:52:55;101583.19;;;0.11;60.91
12666;BME280;58531;59.050;17.416;2023-02-22T09:55:30;101579.78;;;0.26;58.91
12666;BME280;58531;59.050;17.416;2023-02-22T09:58:02;101580.81;;;0.22;59.29
12666;BME280;58531;59.050;17.416;2023-02-22T10:00:34;101576.03;;;-0.07;58.63
12666;BME280;58531;59.050;17.416;2023-02-22T10:03:14;101577.44;;;-0.40;59.67
12666;BME280;58531;59.050;17.416;2023-02-22T10:05:51;101576.94;;;-0.73;59.36
12666;BME280;58531;59.050;17.416;2023-02-22T10:08:22;101582.75;;;-0.95;60.38
12666;BME280;58531;59.050;17.416;2023-02-22T10:11:00;101591.81;;;-1.32;60.94
12666;BME280;58531;59.050;17.416;2023-02-22T10:13:36;101587.69;;;-1.33;61.52
12666;BME280;58531;59.050;17.416;2023-02-22T10:16:12;101585.94;;;-1.41;63.24
12666;BME280;58531;59.050;17.416;2023-02-22T10:19:02;101586.38;;;-1.51;62.78
12666;BME280;58531;59.050;17.416;2023-02-22T10:21:43;101587.91;;;-1.38;62.85
12666;BME280;58531;59.050;17.416;2023-02-22T10:24:20;101583.25;;;-1.56;61.58
12666;BME280;58531;59.050;17.416;2023-02-22T10:26:52;101580.38;;;-1.51;62.54
12666;BME280;58531;59.050;17.416;2023-02-22T10:29:29;101589.00;;;-1.51;62.13
12666;BME280;58531;59.050;17.416;2023-02-22T10:32:00;101574.31;;;-1.55;61.42
12666;BME280;58531;59.050;17.416;2023-02-22T10:34:32;101586.69;;;-1.40;62.32
12666;BME280;58531;59.050;17.416;2023-02-22T10:37:15;101579.19;;;-1.42;61.86
12666;BME280;58531;59.050;17.416;2023-02-22T10:39:46;101585.66;;;-1.24;62.05
12666;BME280;58531;59.050;17.416;2023-02-22T10:42:14;101582.09;;;-1.31;61.37
12666;BME280;58531;59.050;17.416;2023-02-22T10:44:41;101577.00;;;-1.40;62.30
12666;BME280;58531;59.050;17.416;2023-02-22T10:47:10;101582.22;;;-1.40;62.16
12666;BME280;58531;59.050;17.416;2023-02-22T10:49:43;101583.09;;;-1.36;62.35
12666;BME280;58531;59.050;17.416;2023-02-22T10:52:17;101580.09;;;-1.11;62.66
12666;BME280;58531;59.050;17.416;2023-02-22T10:54:47;101583.41;;;-0.98;61.86
12666;BME280;58531;59.050;17.416;2023-02-22T10:57:19;101580.44;;;-0.69;61.73
12666;BME280;58531;59.050;17.416;2023-02-22T10:59:47;101582.19;;;-0.30;60.74
12666;BME280;58531;59.050;17.416;2023-02-22T11:02:18;101582.44;;;-0.04;58.90
12666;BME280;58531;59.050;17.416;2023-02-22T11:04:47;101575.81;;;0.51;59.47
12666;BME280;58531;59.050;17.416;2023-02-22T11:07:22;101577.38;;;0.71;57.58
12666;BME280;58531;59.050;17.416;2023-02-22T11:09:51;101570.25;;;0.72;57.68
12666;BME280;58531;59.050;17.416;2023-02-22T11:12:24;101576.81;;;1.00;57.69
12666;BME280;58531;59.050;17.416;2023-02-22T11:14:51;101574.00;;;1.50;54.70
12666;BME280;58531;59.050;17.416;2023-02-22T11:17:27;101579.94;;;1.92;54.58
12666;BME280;58531;59.050;17.416;2023-02-22T11:19:55;101578.75;;;2.12;55.87
12666;BME280;58531;59.050;17.416;2023-02-22T11:22:26;101573.78;;;2.07;52.74
12666;BME280;58531;59.050;17.416;2023-02-22T11:24:59;101577.03;;;1.97;54.87
12666;BME280;58531;59.050;17.416;2023-02-22T11:27:36;101575.94;;;1.75;52.77
12666;BME280;58531;59.050;17.416;2023-02-22T11:30:17;101580.72;;;1.06;52.69
12666;BME280;58531;59.050;17.416;2023-02-22T11:32:48;101581.81;;;0.67;53.56
12666;BME280;58531;59.050;17.416;2023-02-22T11:35:30;101580.38;;;0.89;55.69
12666;BME280;58531;59.050;17.416;2023-02-22T11:38:15;101578.56;;;0.74;56.80
12666;BME280;58531;59.050;17.416;2023-02-22T11:40:43;101579.88;;;0.64;55.04
12666;BME280;58531;59.050;17.416;2023-02-22T11:43:15;101586.72;;;0.34;54.85
12666;BME280;58531;59.050;17.416;2023-02-22T11:45:57;101583.22;;;0.46;56.98
12666;BME280;58531;59.050;17.416;2023-02-22T11:48:28;101583.72;;;0.51;56.50
12666;BME280;58531;59.050;17.416;2023-02-22T11:54:18;101584.59;;;0.40;60.81
12666;BME280;58531;59.050;17.416;2023-02-22T11:57:02;101580.00;;;0.71;60.18
12666;BME280;58531;59.050;17.416;2023-02-22T11:59:35;101583.59;;;0.63;59.42
12666;BME280;58531;59.050;17.416;2023-02-22T12:02:23;101579.38;;;0.78;57.98
12666;BME280;58531;59.050;17.416;2023-02-22T12:05:12;101583.06;;;0.92;55.48
12666;BME280;58531;59.050;17.416;2023-02-22T12:07:55;101576.88;;;1.04;56.70
12666;BME280;58531;59.050;17.416;2023-02-22T12:10:46;101578.91;;;1.10;57.76
12666;BME280;58531;59.050;17.416;2023-02-22T12:13:35;101581.88;;;1.09;59.27
12666;BME280;58531;59.050;17.416;2023-02-22T12:16:13;101582.50;;;1.21;58.55
12666;BME280;58531;59.050;17.416;2023-02-22T12:19:06;101575.72;;;1.01;60.33
12666;BME280;58531;59.050;17.416;2023-02-22T12:21:39;101580.72;;;1.06;62.36
12666;BME280;58531;59.050;17.416;2023-02-22T12:24:09;101573.66;;;0.72;59.43
12666;BME280;58531;59.050;17.416;2023-02-22T12:26:41;101580.28;;;0.85;57.87
12666;BME280;58531;59.050;17.416;2023-02-22T12:29:25;101580.84;;;0.75;59.75
12666;BME280;58531;59.050;17.416;2023-02-22T12:31:57;101578.44;;;0.86;60.26
12666;BME280;58531;59.050;17.416;2023-02-22T12:34:30;101581.44;;;1.07;60.13
12666;BME280;58531;59.050;17.416;2023-02-22T12:37:05;101577.19;;;0.99;57.39
12666;BME280;58531;59.050;17.416;2023-02-22T12:39:45;101574.13;;;1.15;57.60
12666;BME280;58531;59.050;17.416;2023-02-22T12:42:21;101572.59;;;1.14;58.03
12666;BME280;58531;59.050;17.416;2023-02-22T12:44:54;101578.50;;;1.08;60.40
12666;BME280;58531;59.050;17.416;2023-02-22T12:47:30;101579.47;;;1.00;60.38
12666;BME280;58531;59.050;17.416;2023-02-22T12:50:04;101577.16;;;0.80;60.77
12666;BME280;58531;59.050;17.416;2023-02-22T12:52:40;101581.59;;;1.13;59.42
12666;BME280;58531;59.050;17.416;2023-02-22T12:55:12;101576.00;;;0.96;59.65
12666;BME280;58531;59.050;17.416;2023-02-22T12:57:48;101573.09;;;1.01;58.80
12666;BME280;58531;59.050;17.416;2023-02-22T13:00:20;101572.69;;;0.99;58.00
12666;BME280;58531;59.050;17.416;2023-02-22T13:02:56;101573.22;;;1.08;59.09
12666;BME280;58531;59.050;17.416;2023-02-22T13:05:24;101571.19;;;1.20;59.76
12666;BME280;58531;59.050;17.416;2023-02-22T13:08:13;101568.94;;;1.19;60.50
12666;BME280;58531;59.050;17.416;2023-02-22T13:11:00;101566.78;;;1.24;58.88